Time;durP1;ratioP1;P1;durP2;ratioP2;P2;SDS_P1;SDS_P2;PMS_P1;PMS_P2;Temp;Humidity;BMP_temperature;BMP_pressure;BME280_temperature;BME280_humidity;BME280_pressure;Samples;Min_cycle;Max_cycle;Signal;HPM_P1;HPM_P2
2022/04/10 00:00:37;;;;;;;16.53;3.30;;;2.30;99.90;;;;;;5069397;28;20280;-87
2022/04/10 00:03:04;;;;;;;9.83;2.80;;;2.40;99.90;;;;;;5071386;28;20670;-88
2022/04/10 00:05:33;;;;;;;10.40;2.20;;;2.40;99.90;;;;;;5078942;28;20248;-89
2022/04/10 00:07:59;;;;;;;10.77;2.40;;;2.40;99.90;;;;;;5070943;28;20312;-88
2022/04/10 00:10:26;;;;;;;7.53;2.10;;;2.50;99.90;;;;;;5069696;28;20231;-88
2022/04/10 00:12:53;;;;;;;9.10;3.40;;;2.50;99.90;;;;;;5068729;28;20691;-87
2022/04/10 00:15:20;;;;;;;9.70;2.37;;;2.60;99.90;;;;;;5072726;28;20236;-85
2022/04/10 00:17:47;;;;;;;14.53;2.97;;;2.60;99.90;;;;;;5098357;28;20415;-86
2022/04/10 00:20:14;;;;;;;8.60;2.40;;;2.70;99.90;;;;;;5094563;28;20286;-86
2022/04/10 00:22:43;;;;;;;9.03;2.30;;;2.70;99.90;;;;;;5091078;28;20296;-85
2022/04/10 00:25:12;;;;;;;9.17;2.30;;;2.80;99.90;;;;;;5085233;28;20581;-85
2022/04/10 00:27:40;;;;;;;11.67;2.20;;;2.80;99.90;;;;;;5099052;28;20240;-84
2022/04/10 00:30:08;;;;;;;11.57;2.70;;;2.80;99.90;;;;;;5076967;28;20230;-84
2022/04/10 00:32:35;;;;;;;12.97;2.27;;;2.80;99.90;;;;;;5075154;28;20228;-85
2022/04/10 00:35:02;;;;;;;8.20;2.33;;;2.80;99.90;;;;;;5074975;28;20227;-85
2022/04/10 00:37:28;;;;;;;9.27;2.20;;;2.80;99.90;;;;;;5094320;28;20304;-85
2022/04/10 00:39:57;;;;;;;10.67;2.50;;;2.70;99.90;;;;;;5093365;28;20222;-86
2022/04/10 00:42:30;;;;;;;9.33;2.37;;;2.70;99.90;;;;;;5085947;28;20215;-84
2022/04/10 00:44:57;;;;;;;7.50;1.93;;;2.60;99.90;;;;;;5097038;28;20224;-85
2022/04/10 00:47:24;;;;;;;9.93;2.27;;;2.60;99.90;;;;;;5072658;28;20223;-85
2022/04/10 00:49:52;;;;;;;8.83;2.23;;;2.50;99.90;;;;;;5074435;28;20228;-86
2022/04/10 00:52:21;;;;;;;13.07;3.13;;;2.40;99.90;;;;;;5070148;28;20316;-86
2022/04/10 00:54:48;;;;;;;7.30;1.93;;;2.40;99.90;;;;;;5085068;28;20234;-86
2022/04/10 00:57:16;;;;;;;6.83;1.90;;;2.30;99.90;;;;;;5072653;28;20851;-85
2022/04/10 00:59:43;;;;;;;6.90;2.30;;;2.30;99.90;;;;;;5080484;28;20764;-85
2022/04/10 01:02:10;;;;;;;11.97;2.60;;;2.20;99.90;;;;;;5075686;28;20301;-85
2022/04/10 01:04:37;;;;;;;7.43;2.23;;;2.20;99.90;;;;;;5080452;28;20697;-85
2022/04/10 01:07:06;;;;;;;15.10;2.87;;;2.20;99.90;;;;;;5080080;28;20254;-85
2022/04/10 01:09:34;;;;;;;10.90;2.10;;;2.20;99.90;;;;;;5079134;28;20312;-85
2022/04/10 01:12:02;;;;;;;6.73;2.60;;;2.20;99.90;;;;;;5095804;28;20236;-85
2022/04/10 01:14:33;;;;;;;10.57;2.40;;;2.20;99.90;;;;;;5078294;28;20220;-84
2022/04/10 01:17:01;;;;;;;6.20;2.10;;;2.20;99.90;;;;;;5101200;28;20242;-85
2022/04/10 01:19:29;;;;;;;8.20;2.13;;;2.20;99.90;;;;;;5068753;28;20248;-86
2022/04/10 01:22:04;;;;;;;11.87;2.13;;;2.20;99.90;;;;;;5076245;28;20225;-86
2022/04/10 01:24:35;;;;;;;11.33;2.57;;;2.20;99.90;;;;;;5077714;28;20229;-86
2022/04/10 01:27:03;;;;;;;8.33;2.43;;;2.20;99.90;;;;;;5078366;28;20323;-85
2022/04/10 01:29:30;;;;;;;11.60;2.40;;;2.20;99.90;;;;;;5089888;28;20232;-85
2022/04/10 01:31:57;;;;;;;10.87;2.87;;;2.20;99.90;;;;;;5074988;28;20228;-88
2022/04/10 01:34:24;;;;;;;8.33;2.30;;;2.20;99.90;;;;;;5074769;28;20254;-86
2022/04/10 01:36:52;;;;;;;6.77;2.10;;;2.20;99.90;;;;;;5092004;28;20241;-85
2022/04/10 01:39:19;;;;;;;10.77;2.70;;;2.10;99.90;;;;;;5077929;28;20224;-84
2022/04/10 01:41:51;;;;;;;8.90;2.40;;;2.10;99.90;;;;;;5075490;28;20300;-85
2022/04/10 01:44:17;;;;;;;9.00;2.27;;;2.10;99.90;;;;;;5074245;28;20221;-85
2022/04/10 01:46:44;;;;;;;9.07;2.33;;;2.10;99.90;;;;;;5090194;28;20707;-86
2022/04/10 01:49:12;;;;;;;9.20;2.40;;;2.10;99.90;;;;;;5073459;28;20708;-87
2022/04/10 01:51:40;;;;;;;13.13;2.77;;;2.10;99.90;;;;;;5089701;28;20303;-85
2022/04/10 01:54:07;;;;;;;8.07;2.30;;;2.10;99.90;;;;;;5093812;28;20326;-85
2022/04/10 01:56:33;;;;;;;8.10;2.40;;;2.10;99.90;;;;;;5075772;28;20226;-85
2022/04/10 01:59:04;;;;;;;13.73;3.23;;;2.10;99.90;;;;;;5076343;28;20753;-86
2022/04/10 02:01:32;;;;;;;4.80;1.90;;;2.20;99.90;;;;;;5077665;28;20222;-85
2022/04/10 02:03:59;;;;;;;9.67;2.37;;;2.20;99.90;;;;;;5076833;28;20233;-85
2022/04/10 02:06:25;;;;;;;7.20;2.30;;;2.20;99.90;;;;;;5092594;28;20228;-85
2022/04/10 02:08:53;;;;;;;4.53;2.10;;;2.30;99.90;;;;;;5074401;28;20247;-85
2022/04/10 02:11:23;;;;;;;8.53;2.43;;;2.30;99.90;;;;;;5072793;28;20232;-84
2022/04/10 02:13:54;;;;;;;12.47;2.60;;;2.40;99.90;;;;;;5073219;28;20233;-84
2022/04/10 02:16:23;;;;;;;5.97;2.40;;;2.30;99.90;;;;;;5071711;28;20233;-85
2022/04/10 02:18:50;;;;;;;9.50;2.40;;;2.30;99.90;;;;;;5072772;28;20853;-84
2022/04/10 02:21:17;;;;;;;6.77;2.43;;;2.30;99.90;;;;;;5071798;28;20296;-86
2022/04/10 02:23:45;;;;;;;9.00;2.60;;;2.20;99.90;;;;;;5069509;28;20254;-86
2022/04/10 02:26:12;;;;;;;6.80;2.40;;;2.20;99.90;;;;;;5069220;28;20221;-85
2022/04/10 02:28:41;;;;;;;6.93;2.47;;;2.10;99.90;;;;;;5069148;28;20364;-85
2022/04/10 02:31:08;;;;;;;9.40;2.47;;;2.10;99.90;;;;;;5068789;28;20225;-86
2022/04/10 02:33:37;;;;;;;4.17;2.07;;;2.10;99.90;;;;;;5069360;28;20278;-85
2022/04/10 02:36:05;;;;;;;5.73;2.50;;;2.10;99.90;;;;;;5070487;28;20229;-85
2022/04/10 02:38:32;;;;;;;8.57;2.60;;;2.10;99.90;;;;;;5079737;28;20227;-86
2022/04/10 02:40:59;;;;;;;6.33;3.13;;;2.10;99.90;;;;;;5075856;28;20253;-85
2022/04/10 02:43:26;;;;;;;7.90;2.83;;;2.10;99.90;;;;;;5064489;28;20314;-86
2022/04/10 02:45:58;;;;;;;8.57;2.90;;;2.10;99.90;;;;;;5069819;28;20308;-85
2022/04/10 02:48:26;;;;;;;6.40;2.53;;;2.10;99.90;;;;;;5076336;28;20259;-85
2022/04/10 02:50:55;;;;;;;5.23;2.47;;;2.00;99.90;;;;;;5089284;28;20236;-86
2022/04/10 02:53:22;;;;;;;5.33;2.23;;;2.00;99.90;;;;;;5069643;28;20300;-85
2022/04/10 02:55:50;;;;;;;7.27;2.57;;;2.00;99.90;;;;;;5071728;28;20262;-86
2022/04/10 02:58:17;;;;;;;5.43;2.33;;;2.00;99.90;;;;;;5088865;28;20315;-87
2022/04/10 03:00:44;;;;;;;4.83;2.17;;;2.00;99.90;;;;;;5071569;28;20654;-86
2022/04/10 03:03:11;;;;;;;7.07;1.80;;;2.00;99.90;;;;;;5070824;28;20221;-86
2022/04/10 03:05:39;;;;;;;5.67;1.63;;;2.00;99.90;;;;;;5071449;28;20229;-83
2022/04/10 03:08:08;;;;;;;3.83;1.40;;;1.90;99.90;;;;;;5072147;28;20232;-86
2022/04/10 03:10:36;;;;;;;5.13;1.50;;;1.90;99.90;;;;;;5072121;28;20302;-88
2022/04/10 03:13:03;;;;;;;3.30;1.40;;;1.80;99.90;;;;;;5066495;28;20223;-86
2022/04/10 03:15:30;;;;;;;2.77;1.40;;;1.80;99.90;;;;;;5082076;28;20292;-86
2022/04/10 03:17:57;;;;;;;2.20;1.33;;;1.70;99.90;;;;;;5068069;28;20227;-85
2022/04/10 03:20:24;;;;;;;4.00;1.37;;;1.60;99.90;;;;;;5067942;28;20898;-86
2022/04/10 03:22:51;;;;;;;3.37;1.67;;;1.60;99.90;;;;;;5067802;28;20308;-86
2022/04/10 03:25:19;;;;;;;3.33;1.57;;;1.50;99.90;;;;;;5068281;28;20245;-85
2022/04/10 03:27:46;;;;;;;5.10;1.70;;;1.40;99.90;;;;;;5070154;28;20675;-87
2022/04/10 03:30:13;;;;;;;4.40;2.00;;;1.40;99.90;;;;;;5086923;28;20631;-86
2022/04/10 03:32:40;;;;;;;4.10;1.77;;;1.30;99.90;;;;;;5069022;28;20219;-86
2022/04/10 03:35:08;;;;;;;8.27;1.97;;;1.20;99.90;;;;;;5068693;28;20286;-85
2022/04/10 03:37:35;;;;;;;4.67;2.50;;;1.20;99.90;;;;;;5085783;28;20782;-86
2022/04/10 03:40:03;;;;;;;6.70;2.63;;;1.30;99.90;;;;;;5069121;28;20219;-86
2022/04/10 03:42:39;;;;;;;13.53;3.27;;;1.10;99.90;;;;;;5070299;28;20789;-85
2022/04/10 03:45:09;;;;;;;11.37;3.37;;;1.10;99.90;;;;;;5085379;28;20769;-86
2022/04/10 03:47:36;;;;;;;9.03;3.40;;;1.10;99.90;;;;;;5072908;28;20215;-87
2022/04/10 03:50:04;;;;;;;6.17;3.27;;;1.10;99.90;;;;;;5072539;28;20235;-87
2022/04/10 03:52:32;;;;;;;6.47;4.33;;;1.10;99.90;;;;;;5072197;28;20224;-87
2022/04/10 03:54:59;;;;;;;9.67;3.97;;;1.00;99.90;;;;;;5052100;28;20707;-87
2022/04/10 03:57:27;;;;;;;7.80;3.43;;;1.00;99.90;;;;;;5069123;28;20220;-87
2022/04/10 03:59:55;;;;;;;7.37;3.00;;;1.00;99.90;;;;;;5072442;28;20238;-88
2022/04/10 04:02:23;;;;;;;11.37;3.27;;;1.00;99.90;;;;;;5073524;28;20243;-87
2022/04/10 04:04:51;;;;;;;8.20;3.17;;;1.00;99.90;;;;;;5074030;28;20251;-85
2022/04/10 04:07:19;;;;;;;9.43;2.97;;;1.00;99.90;;;;;;5074037;28;20570;-86
2022/04/10 04:09:46;;;;;;;7.73;2.53;;;1.00;99.90;;;;;;5074722;28;20224;-86
2022/04/10 04:12:13;;;;;;;9.00;2.40;;;1.00;99.90;;;;;;5072347;28;20222;-86
2022/04/10 04:14:41;;;;;;;8.30;2.60;;;1.00;99.90;;;;;;5077755;28;20231;-85
2022/04/10 04:17:10;;;;;;;6.17;2.53;;;1.00;99.90;;;;;;5071997;28;20953;-86
2022/04/10 04:19:37;;;;;;;7.07;2.80;;;1.10;99.90;;;;;;5073462;28;20238;-85
2022/04/10 04:22:07;;;;;;;13.40;3.80;;;1.10;99.90;;;;;;5075304;28;20224;-84
2022/04/10 04:24:37;;;;;;;7.73;2.90;;;1.20;99.90;;;;;;5074525;28;20244;-84
2022/04/10 04:27:05;;;;;;;6.93;3.40;;;1.20;99.90;;;;;;5073698;28;20219;-85
2022/04/10 04:29:32;;;;;;;8.07;3.20;;;1.20;99.90;;;;;;5072681;28;20224;-87
2022/04/10 04:31:59;;;;;;;6.50;3.00;;;1.30;99.90;;;;;;5072376;28;20225;-87
2022/04/10 04:34:28;;;;;;;8.13;3.10;;;1.30;99.90;;;;;;5071722;28;20215;-86
2022/04/10 04:36:57;;;;;;;9.27;3.40;;;1.40;99.90;;;;;;5071886;28;20227;-87
2022/04/10 04:39:24;;;;;;;7.63;3.13;;;1.50;99.90;;;;;;5070555;28;20237;-86
2022/04/10 04:41:51;;;;;;;13.97;3.67;;;1.40;99.90;;;;;;5072381;28;20228;-88
2022/04/10 04:44:18;;;;;;;6.90;3.10;;;1.50;99.90;;;;;;5072814;28;20621;-87
2022/04/10 04:46:45;;;;;;;9.23;3.20;;;1.50;99.90;;;;;;5071958;28;20701;-87
2022/04/10 04:49:12;;;;;;;8.47;3.50;;;1.50;99.90;;;;;;5070644;28;20262;-85
2022/04/10 04:51:41;;;;;;;15.07;3.20;;;1.50;99.90;;;;;;5070762;28;20631;-86
2022/04/10 04:54:09;;;;;;;11.53;3.70;;;1.50;99.90;;;;;;5070408;28;20704;-87
2022/04/10 04:56:36;;;;;;;12.37;4.00;;;1.50;99.90;;;;;;5070335;28;20225;-86
2022/04/10 04:59:04;;;;;;;9.37;3.30;;;1.50;99.90;;;;;;5070138;28;20754;-87
2022/04/10 05:01:32;;;;;;;10.43;3.50;;;1.50;99.90;;;;;;5072969;28;20276;-86
2022/04/10 05:03:59;;;;;;;10.00;3.63;;;1.50;99.90;;;;;;5073785;28;20862;-87
2022/04/10 05:06:26;;;;;;;13.03;3.87;;;1.60;99.90;;;;;;5072404;28;20242;-86
2022/04/10 05:08:55;;;;;;;9.83;3.57;;;1.60;99.90;;;;;;5074839;28;20248;-86
2022/04/10 05:11:22;;;;;;;9.77;3.80;;;1.60;99.90;;;;;;5071503;28;20246;-86
2022/04/10 05:13:48;;;;;;;11.83;3.60;;;1.70;99.90;;;;;;5065950;28;20223;-86
2022/04/10 05:16:17;;;;;;;14.63;3.97;;;1.70;99.90;;;;;;5072680;28;20802;-87
2022/04/10 05:18:47;;;;;;;12.93;3.93;;;1.80;99.90;;;;;;5074900;28;20248;-86
2022/04/10 05:21:17;;;;;;;10.53;3.70;;;1.90;99.90;;;;;;5074161;28;20254;-87
2022/04/10 05:23:45;;;;;;;12.43;3.87;;;1.90;99.90;;;;;;5073796;28;20328;-86
2022/04/10 05:26:19;;;;;;;11.17;3.77;;;1.90;99.90;;;;;;5072861;28;20241;-86
2022/04/10 05:28:51;;;;;;;11.70;3.47;;;2.00;99.90;;;;;;5074358;28;20226;-85
2022/04/10 05:31:19;;;;;;;13.07;3.77;;;2.10;99.90;;;;;;5073233;28;20650;-86
2022/04/10 05:33:47;;;;;;;12.17;3.67;;;2.10;99.90;;;;;;5073706;28;20277;-86
2022/04/10 05:36:17;;;;;;;18.20;4.63;;;2.10;99.90;;;;;;5072947;28;20223;-86
2022/04/10 05:38:47;;;;;;;9.40;4.23;;;2.20;99.90;;;;;;5074373;28;20222;-87
2022/04/10 05:41:16;;;;;;;18.67;3.87;;;2.30;99.90;;;;;;5073325;28;20228;-87
2022/04/10 05:43:49;;;;;;;14.87;3.50;;;2.30;99.90;;;;;;5074993;28;20227;-86
2022/04/10 05:46:16;;;;;;;8.23;3.70;;;2.30;99.90;;;;;;5073292;28;20311;-86
2022/04/10 05:48:47;;;;;;;11.67;4.13;;;2.30;99.90;;;;;;5079871;28;20222;-87
2022/04/10 05:51:14;;;;;;;12.00;3.70;;;2.40;99.90;;;;;;5089514;28;20221;-86
2022/04/10 05:53:41;;;;;;;12.83;3.67;;;2.50;99.90;;;;;;5069059;28;20229;-82
2022/04/10 05:56:08;;;;;;;12.87;3.60;;;2.60;99.90;;;;;;5072741;28;20584;-86
2022/04/10 05:58:41;;;;;;;12.60;3.17;;;2.70;99.90;;;;;;5083619;28;20226;-83
2022/04/10 06:01:09;;;;;;;14.23;3.60;;;2.80;99.90;;;;;;5089241;28;20307;-89
2022/04/10 06:03:36;;;;;;;12.90;3.30;;;2.80;99.90;;;;;;5073659;28;20230;-88
2022/04/10 06:06:05;;;;;;;15.53;3.63;;;2.90;99.90;;;;;;5073764;28;20255;-88
2022/04/10 06:08:42;;;;;;;11.17;3.63;;;2.90;99.90;;;;;;5074696;28;20316;-89
2022/04/10 06:11:09;;;;;;;9.13;3.57;;;2.80;99.90;;;;;;5072248;28;20564;-88
2022/04/10 06:13:37;;;;;;;13.20;3.70;;;2.80;99.90;;;;;;5072953;28;20229;-89
2022/04/10 06:16:10;;;;;;;10.87;3.17;;;2.80;99.90;;;;;;5072142;28;20235;-88
2022/04/10 06:18:38;;;;;;;9.50;3.17;;;2.80;99.90;;;;;;5073321;28;20276;-88
2022/04/10 06:21:06;;;;;;;7.43;3.27;;;2.80;99.90;;;;;;5073075;28;20240;-88
2022/04/10 06:23:34;;;;;;;14.50;3.23;;;2.90;99.90;;;;;;5072255;28;20229;-88
2022/04/10 06:26:06;;;;;;;12.40;3.03;;;2.90;99.90;;;;;;5072790;28;20586;-88
2022/04/10 06:28:34;;;;;;;13.07;3.33;;;3.00;99.90;;;;;;5069242;28;20233;-89
2022/04/10 06:31:04;;;;;;;11.17;3.90;;;3.10;99.90;;;;;;5072826;28;20223;-88
2022/04/10 06:33:36;;;;;;;11.30;3.10;;;3.30;99.90;;;;;;5072278;28;20310;-88
2022/04/10 06:36:04;;;;;;;15.80;3.30;;;3.40;99.90;;;;;;5072581;28;20226;-88
2022/04/10 06:38:32;;;;;;;11.27;2.93;;;3.60;99.90;;;;;;5078056;28;20994;-89
2022/04/10 06:41:07;;;;;;;8.87;2.90;;;3.90;99.90;;;;;;5079005;28;20312;-89
2022/04/10 06:43:34;;;;;;;11.90;2.93;;;4.00;99.90;;;;;;5072910;28;20261;-90
2022/04/10 06:46:04;;;;;;;9.37;2.73;;;4.20;99.90;;;;;;5090359;28;20302;-88
2022/04/10 06:48:39;;;;;;;9.10;2.90;;;4.30;99.90;;;;;;5074495;28;20282;-87
2022/04/10 06:51:06;;;;;;;6.47;2.43;;;4.50;99.90;;;;;;5072012;28;20225;-86
2022/04/10 06:53:32;;;;;;;6.73;2.40;;;4.60;99.90;;;;;;5084601;28;20228;-85
2022/04/10 06:56:00;;;;;;;7.17;2.60;;;4.70;99.90;;;;;;5071141;28;20755;-85
2022/04/10 06:58:32;;;;;;;7.13;2.70;;;4.80;99.90;;;;;;5071064;28;20224;-86
2022/04/10 07:00:59;;;;;;;9.43;2.43;;;4.90;99.90;;;;;;5073582;28;20221;-84
2022/04/10 07:03:27;;;;;;;8.50;1.90;;;5.00;99.90;;;;;;5070631;28;20233;-83
2022/04/10 07:05:57;;;;;;;9.13;2.10;;;5.00;99.90;;;;;;5073874;28;20225;-83
2022/04/10 07:08:29;;;;;;;6.13;2.10;;;5.00;99.90;;;;;;5074638;28;20231;-83
2022/04/10 07:10:56;;;;;;;4.93;1.60;;;5.00;99.90;;;;;;5076337;28;20236;-84
2022/04/10 07:13:26;;;;;;;11.03;2.03;;;5.00;99.90;;;;;;5072303;28;20233;-82
2022/04/10 07:15:53;;;;;;;7.27;2.10;;;5.00;99.90;;;;;;5069497;28;20219;-84
2022/04/10 07:18:21;;;;;;;5.17;1.77;;;5.00;99.90;;;;;;5073473;28;20220;-84
2022/04/10 07:20:51;;;;;;;5.37;2.10;;;5.10;99.90;;;;;;5072574;28;20225;-80
2022/04/10 07:26:07;;;;;;;5.40;1.77;;;5.10;99.90;;;;;;5053574;28;20745;-85
2022/04/10 07:28:35;;;;;;;6.17;2.00;;;5.20;99.90;;;;;;5072476;28;20223;-85
2022/04/10 07:31:02;;;;;;;9.80;2.37;;;5.30;99.90;;;;;;5068947;28;20227;-84
2022/04/10 07:33:33;;;;;;;7.97;2.60;;;5.40;99.90;;;;;;5069663;28;20233;-84
2022/04/10 07:36:08;;;;;;;9.33;3.07;;;5.40;99.90;;;;;;5070306;28;20820;-87
2022/04/10 07:38:39;;;;;;;10.53;2.37;;;5.50;99.90;;;;;;5071264;28;20233;-86
2022/04/10 07:41:11;;;;;;;10.90;2.90;;;5.60;99.90;;;;;;5074637;28;20311;-85
2022/04/10 07:43:43;;;;;;;9.93;2.37;;;5.70;99.90;;;;;;5071480;28;20253;-86
2022/04/10 07:49:02;;;;;;;9.87;2.83;;;6.10;99.90;;;;;;5066136;28;20223;-86
2022/04/10 07:51:33;;;;;;;11.50;3.03;;;6.60;99.90;;;;;;5071904;28;20221;-85
2022/04/10 07:54:18;;;;;;;10.63;3.80;;;7.00;99.90;;;;;;5064277;28;20224;-87
2022/04/10 07:56:46;;;;;;;11.37;3.77;;;7.60;99.90;;;;;;5067563;28;20235;-85
2022/04/10 07:59:17;;;;;;;9.10;2.67;;;8.10;99.90;;;;;;5076374;28;20227;-87
2022/04/10 08:01:44;;;;;;;14.23;3.60;;;8.60;99.90;;;;;;5072441;28;20278;-84
2022/04/10 08:04:18;;;;;;;10.20;2.77;;;9.00;99.90;;;;;;5067451;28;20725;-86
2022/04/10 08:06:47;;;;;;;10.03;2.83;;;9.40;99.90;;;;;;5069794;28;20222;-84
2022/04/10 08:09:15;;;;;;;14.17;3.23;;;9.80;99.90;;;;;;5068192;28;20226;-85
2022/04/10 08:11:42;;;;;;;7.00;2.23;;;10.20;99.60;;;;;;5086707;28;20722;-83
2022/04/10 08:14:08;;;;;;;8.50;1.93;;;10.50;98.80;;;;;;5084120;28;20676;-86
2022/04/10 08:16:35;;;;;;;7.70;2.50;;;10.80;97.90;;;;;;5071944;28;20223;-83
2022/04/10 08:19:02;;;;;;;9.47;2.70;;;11.00;97.50;;;;;;5087141;28;20621;-83
2022/04/10 08:21:29;;;;;;;11.83;2.70;;;11.10;97.00;;;;;;5070287;28;20820;-85
2022/04/10 08:23:56;;;;;;;7.57;2.10;;;11.10;95.60;;;;;;5063027;28;20225;-83
2022/04/10 08:26:25;;;;;;;7.03;2.33;;;10.80;94.20;;;;;;5068508;28;20225;-83
2022/04/10 08:28:51;;;;;;;8.10;2.43;;;10.40;93.00;;;;;;5076269;28;20233;-84
2022/04/10 08:31:18;;;;;;;4.93;2.40;;;9.70;93.40;;;;;;5070515;28;20226;-82
2022/04/10 08:33:46;;;;;;;13.93;2.97;;;9.00;93.70;;;;;;5077043;28;20703;-82
2022/04/10 08:36:13;;;;;;;11.47;2.37;;;8.40;94.40;;;;;;5090347;28;20219;-83
2022/04/10 08:38:40;;;;;;;10.80;2.37;;;7.70;95.10;;;;;;5070255;28;20253;-83
2022/04/10 08:41:09;;;;;;;7.87;2.63;;;7.20;96.10;;;;;;5089536;28;20555;-83
2022/04/10 08:43:37;;;;;;;12.70;2.10;;;6.70;96.60;;;;;;5081462;28;20227;-82
2022/04/10 08:46:06;;;;;;;11.63;2.80;;;6.30;97.20;;;;;;5088351;28;20320;-82
2022/04/10 08:48:36;;;;;;;10.00;2.20;;;6.10;98.30;;;;;;5077312;28;20251;-82
2022/04/10 08:51:05;;;;;;;5.43;2.27;;;6.10;99.90;;;;;;5080528;28;20312;-83
2022/04/10 08:53:33;;;;;;;10.33;2.30;;;6.20;99.90;;;;;;5085698;28;20768;-83
2022/04/10 08:56:01;;;;;;;6.60;2.37;;;6.50;99.90;;;;;;5072247;28;20226;-83
2022/04/10 08:58:34;;;;;;;10.93;2.67;;;7.00;99.90;;;;;;5073899;28;20234;-83
2022/04/10 09:01:02;;;;;;;6.13;2.17;;;7.60;99.90;;;;;;5087890;28;20223;-83
2022/04/10 09:03:30;;;;;;;7.83;2.63;;;8.20;99.90;;;;;;5085461;28;20243;-82
2022/04/10 09:06:05;;;;;;;4.97;1.63;;;8.70;99.90;;;;;;5085302;28;20259;-82
2022/04/10 09:08:32;;;;;;;5.73;1.67;;;9.30;99.90;;;;;;5069340;28;20251;-82
2022/04/10 09:11:01;;;;;;;7.00;1.67;;;9.70;99.90;;;;;;5064611;28;21000;-82
2022/04/10 09:13:34;;;;;;;6.50;2.20;;;10.10;99.60;;;;;;5068543;28;20245;-86
2022/04/10 09:16:14;;;;;;;8.87;2.50;;;10.60;99.10;;;;;;5069684;28;20295;-83
2022/04/10 09:18:54;;;;;;;8.03;2.73;;;10.90;97.90;;;;;;5066840;28;20904;-82
2022/04/10 09:21:23;;;;;;;6.73;2.73;;;11.20;97.70;;;;;;5067859;28;20860;-82
2022/04/10 09:23:55;;;;;;;10.23;2.20;;;11.40;96.90;;;;;;5084577;28;20285;-82
2022/04/10 09:26:22;;;;;;;8.83;2.20;;;11.50;96.30;;;;;;5084138;28;20227;-83
2022/04/10 09:28:50;;;;;;;8.57;2.13;;;11.40;95.60;;;;;;5072284;28;20223;-82
2022/04/10 09:31:32;;;;;;;11.07;2.10;;;11.40;95.20;;;;;;5083794;28;20758;-83
2022/04/10 09:34:01;;;;;;;8.57;2.27;;;11.20;94.80;;;;;;5066393;28;20239;-82
2022/04/10 09:36:39;;;;;;;6.73;1.87;;;11.10;94.80;;;;;;5082465;28;20294;-81
2022/04/10 09:39:09;;;;;;;7.07;2.10;;;11.10;94.80;;;;;;5080924;28;20458;-82
2022/04/10 09:41:37;;;;;;;8.77;1.57;;;11.10;94.20;;;;;;5074783;28;20227;-82
2022/04/10 09:44:20;;;;;;;10.10;2.37;;;11.10;94.10;;;;;;5083336;28;20237;-82
2022/04/10 09:47:00;;;;;;;7.43;1.97;;;11.20;94.10;;;;;;5064816;28;20704;-82
2022/04/10 09:49:31;;;;;;;6.00;2.00;;;11.40;93.80;;;;;;5084345;28;20238;-82
2022/04/10 09:52:06;;;;;;;7.40;2.03;;;11.50;93.70;;;;;;5084993;28;20230;-82
2022/04/10 09:54:35;;;;;;;8.87;2.00;;;11.80;93.80;;;;;;5084133;28;20223;-82
2022/04/10 09:57:04;;;;;;;4.80;1.90;;;12.00;93.70;;;;;;5083363;28;20590;-82
2022/04/10 09:59:37;;;;;;;4.73;1.70;;;12.20;93.40;;;;;;5085031;28;20255;-81
2022/04/10 10:02:06;;;;;;;7.73;1.97;;;12.30;90.80;;;;;;5073850;28;20315;-82
2022/04/10 10:04:37;;;;;;;7.00;2.10;;;12.40;91.30;;;;;;5084328;28;20250;-81
2022/04/10 10:07:05;;;;;;;8.37;2.13;;;12.40;90.90;;;;;;5085390;28;20291;-82
2022/04/10 10:09:33;;;;;;;7.87;2.33;;;12.20;90.40;;;;;;5065473;28;20335;-82
2022/04/10 10:12:00;;;;;;;7.37;1.83;;;12.10;90.20;;;;;;5070883;28;20229;-82
2022/04/10 10:14:29;;;;;;;6.47;1.83;;;11.90;89.90;;;;;;5064473;28;20236;-82
2022/04/10 10:16:58;;;;;;;7.63;2.00;;;11.80;90.10;;;;;;5072386;28;20276;-82
2022/04/10 10:19:27;;;;;;;4.93;1.67;;;11.80;90.30;;;;;;5083321;28;20243;-82
2022/04/10 10:21:55;;;;;;;5.80;1.70;;;11.80;88.90;;;;;;5076466;28;20294;-82
2022/04/10 10:24:25;;;;;;;5.23;2.00;;;11.70;89.30;;;;;;5041086;23;20323;-81
2022/04/10 10:27:07;;;;;;;6.00;1.80;;;11.60;89.00;;;;;;5005497;28;20742;-82
2022/04/10 10:30:07;;;;;;;8.13;2.00;;;11.40;87.70;;;;;;5003101;28;20228;-81
2022/04/10 10:32:41;;;;;;;4.97;1.67;;;11.30;88.70;;;;;;5020942;28;20233;-81
2022/04/10 10:35:11;;;;;;;5.63;2.00;;;11.30;88.90;;;;;;4999624;28;20227;-82
2022/04/10 10:37:51;;;;;;;6.57;1.60;;;11.40;88.60;;;;;;4981662;28;20218;-83
2022/04/10 10:40:19;;;;;;;5.07;1.90;;;11.40;87.40;;;;;;5002426;28;20849;-80
2022/04/10 10:42:46;;;;;;;7.40;1.90;;;11.30;87.90;;;;;;4985546;28;20213;-80
2022/04/10 10:45:35;;;;;;;6.43;1.70;;;11.30;87.90;;;;;;4984552;28;20869;-80
2022/04/10 10:48:37;;;;;;;6.27;1.30;;;11.30;86.00;;;;;;4983499;28;20262;-80
2022/04/10 10:51:38;;;;;;;3.87;1.33;;;11.40;83.70;;;;;;4998428;28;20236;-80
2022/04/10 10:54:10;;;;;;;5.77;1.47;;;11.60;84.30;;;;;;4979912;28;20244;-81
2022/04/10 10:56:40;;;;;;;4.07;1.30;;;11.80;82.80;;;;;;4982841;28;20245;-80
2022/04/10 10:59:22;;;;;;;4.47;1.50;;;11.90;81.50;;;;;;5002352;28;20229;-80
2022/04/10 11:01:54;;;;;;;5.93;1.90;;;12.00;81.10;;;;;;4989612;28;20895;-80
2022/04/10 11:04:25;;;;;;;4.63;1.43;;;12.10;80.90;;;;;;4996196;28;20231;-80
2022/04/10 11:06:53;;;;;;;3.83;1.17;;;12.20;80.20;;;;;;4980539;28;20336;-80
2022/04/10 11:09:20;;;;;;;5.10;2.30;;;12.30;80.20;;;;;;4998035;28;20230;-80
2022/04/10 11:11:48;;;;;;;7.37;2.03;;;12.40;80.40;;;;;;4987261;28;20222;-79
2022/04/10 11:14:34;;;;;;;5.50;1.70;;;12.40;78.70;;;;;;4973563;28;20228;-79
2022/04/10 11:17:16;;;;;;;5.37;1.57;;;12.40;78.60;;;;;;4999306;28;20468;-79
2022/04/10 11:19:46;;;;;;;9.00;2.00;;;12.40;77.90;;;;;;5006176;28;20249;-80
2022/04/10 11:22:22;;;;;;;6.37;1.57;;;12.50;78.80;;;;;;5006503;28;20265;-80
2022/04/10 11:24:52;;;;;;;4.23;1.40;;;12.50;77.60;;;;;;5002748;28;20229;-80
2022/04/10 11:27:42;;;;;;;5.27;1.47;;;12.40;75.70;;;;;;4990438;28;20329;-80
2022/04/10 11:30:11;;;;;;;6.37;1.97;;;12.20;75.10;;;;;;4992381;28;20264;-81
2022/04/10 11:32:46;;;;;;;5.63;1.90;;;11.80;77.50;;;;;;5006606;28;20233;-81
2022/04/10 11:35:18;;;;;;;5.17;1.53;;;11.40;80.40;;;;;;4987608;28;20364;-81
2022/04/10 11:37:50;;;;;;;4.03;2.27;;;10.90;81.20;;;;;;5004437;28;20602;-80
2022/04/10 11:40:23;;;;;;;4.57;1.40;;;10.40;82.90;;;;;;5008174;28;20232;-81
2022/04/10 11:42:51;;;;;;;5.63;1.37;;;10.10;83.80;;;;;;5003623;28;20231;-80
2022/04/10 11:45:19;;;;;;;5.30;1.17;;;9.90;83.70;;;;;;5005999;28;20704;-81
2022/04/10 11:47:46;;;;;;;3.93;1.40;;;9.50;83.70;;;;;;4989158;28;20274;-83
2022/04/10 11:50:13;;;;;;;3.27;1.20;;;9.30;83.70;;;;;;5005751;28;20250;-83
2022/04/10 11:52:41;;;;;;;8.57;1.50;;;9.10;84.10;;;;;;4987872;28;20232;-83
2022/04/10 11:55:10;;;;;;;5.47;1.60;;;9.00;84.10;;;;;;4990856;28;20527;-79
2022/04/10 11:57:38;;;;;;;4.93;1.37;;;8.90;84.20;;;;;;5007617;28;21019;-79
2022/04/10 12:00:09;;;;;;;4.53;1.20;;;9.00;85.70;;;;;;5005776;28;20271;-79
2022/04/10 12:02:37;;;;;;;2.97;1.17;;;9.00;85.30;;;;;;5004491;28;20242;-79
2022/04/10 12:05:05;;;;;;;2.87;1.03;;;9.20;86.40;;;;;;5006462;28;20267;-79
2022/04/10 12:07:32;;;;;;;5.50;1.30;;;9.50;86.10;;;;;;5006388;28;20231;-79
2022/04/10 12:09:59;;;;;;;5.27;1.30;;;9.70;85.10;;;;;;5010256;28;21172;-79
2022/04/10 12:12:36;;;;;;;4.83;1.47;;;10.00;84.40;;;;;;4991576;28;20230;-78
2022/04/10 12:15:04;;;;;;;5.17;1.50;;;10.30;84.10;;;;;;5007918;28;20234;-78
2022/04/10 12:17:31;;;;;;;3.60;1.43;;;10.50;84.20;;;;;;4991568;28;20236;-79
2022/04/10 12:19:58;;;;;;;7.07;1.63;;;10.80;83.50;;;;;;5009171;28;20730;-80
2022/04/10 12:22:25;;;;;;;3.23;1.43;;;10.90;82.80;;;;;;5006472;28;20936;-77
2022/04/10 12:24:58;;;;;;;5.43;1.50;;;11.00;82.10;;;;;;5005679;28;20256;-81
2022/04/10 12:27:25;;;;;;;4.23;1.63;;;10.90;80.80;;;;;;5007168;28;20324;-80
2022/04/10 12:29:55;;;;;;;4.10;1.30;;;10.90;79.20;;;;;;4985197;28;20319;-80
2022/04/10 12:32:23;;;;;;;6.97;1.80;;;10.90;79.10;;;;;;4990740;28;20283;-81
2022/04/10 12:34:52;;;;;;;4.40;1.60;;;10.80;81.50;;;;;;5009250;28;20560;-78
2022/04/10 12:37:19;;;;;;;3.90;1.37;;;10.60;82.90;;;;;;5003743;28;20225;-81
2022/04/10 12:39:48;;;;;;;5.87;2.00;;;10.30;84.60;;;;;;5007404;28;20226;-80
2022/04/10 12:42:19;;;;;;;5.13;1.20;;;10.10;85.50;;;;;;5006435;28;20299;-81
2022/04/10 12:44:57;;;;;;;4.10;1.30;;;10.00;83.60;;;;;;5009008;28;20237;-80
2022/04/10 12:47:44;;;;;;;7.00;1.20;;;10.00;81.60;;;;;;5009815;28;20233;-81
2022/04/10 12:50:14;;;;;;;4.27;1.40;;;10.10;80.60;;;;;;4988646;28;20256;-81
2022/04/10 12:52:42;;;;;;;5.77;1.33;;;10.10;79.00;;;;;;5009793;28;20851;-80
2022/04/10 12:55:19;;;;;;;4.40;1.30;;;10.20;79.60;;;;;;4989815;28;20307;-79
2022/04/10 12:57:54;;;;;;;3.07;1.30;;;10.20;79.80;;;;;;4991674;28;20232;-79
2022/04/10 13:00:33;;;;;;;5.13;1.07;;;10.30;80.30;;;;;;4989308;28;20232;-79
2022/04/10 13:03:18;;;;;;;5.23;1.57;;;10.40;78.60;;;;;;5008035;28;20229;-79
2022/04/10 13:05:55;;;;;;;6.00;1.50;;;10.50;78.30;;;;;;5008691;28;20312;-80
2022/04/10 13:08:24;;;;;;;5.00;2.00;;;10.60;79.60;;;;;;4990553;28;20229;-79